sensor_id;sensor_type;location;lat;lon;timestamp;P1;durP1;ratioP1;P2;durP2;ratioP2
26780;SDS011;14366;49.184;8.054;2023-06-26T00:00:58;7.15;;;5.15;;
26780;SDS011;14366;49.184;8.054;2023-06-26T00:06:14;5.75;;;4.90;;
26780;SDS011;14366;49.184;8.054;2023-06-26T00:11:47;6.10;;;5.00;;
26780;SDS011;14366;49.184;8.054;2023-06-26T00:17:19;6.10;;;5.00;;
26780;SDS011;14366;49.184;8.054;2023-06-26T00:22:52;5.82;;;5.10;;
26780;SDS011;14366;49.184;8.054;2023-06-26T00:28:25;5.80;;;5.20;;
26780;SDS011;14366;49.184;8.054;2023-06-26T00:33:58;6.10;;;5.50;;
26780;SDS011;14366;49.184;8.054;2023-06-26T00:39:30;6.33;;;4.93;;
26780;SDS011;14366;49.184;8.054;2023-06-26T00:44:47;6.22;;;4.78;;
26780;SDS011;14366;49.184;8.054;2023-06-26T00:50:19;6.57;;;5.00;;
26780;SDS011;14366;49.184;8.054;2023-06-26T00:55:51;5.80;;;5.22;;
26780;SDS011;14366;49.184;8.054;2023-06-26T01:01:24;7.20;;;5.20;;
26780;SDS011;14366;49.184;8.054;2023-06-26T01:06:53;5.90;;;5.00;;
26780;SDS011;14366;49.184;8.054;2023-06-26T01:12:25;5.35;;;4.60;;
26780;SDS011;14366;49.184;8.054;2023-06-26T01:17:58;5.97;;;5.07;;
26780;SDS011;14366;49.184;8.054;2023-06-26T01:23:31;5.90;;;4.90;;
26780;SDS011;14366;49.184;8.054;2023-06-26T01:29:04;5.05;;;4.55;;
26780;SDS011;14366;49.184;8.054;2023-06-26T01:39:38;5.55;;;4.93;;
26780;SDS011;14366;49.184;8.054;2023-06-26T01:50:02;6.55;;;4.80;;
26780;SDS011;14366;49.184;8.054;2023-06-26T01:55:35;6.25;;;5.10;;
26780;SDS011;14366;49.184;8.054;2023-06-26T02:07:09;8.90;;;4.90;;
26780;SDS011;14366;49.184;8.054;2023-06-26T02:12:41;5.80;;;4.57;;
26780;SDS011;14366;49.184;8.054;2023-06-26T02:17:59;5.87;;;4.87;;
26780;SDS011;14366;49.184;8.054;2023-06-26T02:23:17;6.20;;;4.55;;
26780;SDS011;14366;49.184;8.054;2023-06-26T02:28:50;4.47;;;4.03;;
26780;SDS011;14366;49.184;8.054;2023-06-26T02:39:14;6.03;;;4.83;;
26780;SDS011;14366;49.184;8.054;2023-06-26T02:44:45;5.80;;;4.50;;
26780;SDS011;14366;49.184;8.054;2023-06-26T02:50:03;6.35;;;4.90;;
26780;SDS011;14366;49.184;8.054;2023-06-26T02:55:23;6.50;;;5.30;;
26780;SDS011;14366;49.184;8.054;2023-06-26T03:00:56;9.18;;;4.82;;
26780;SDS011;14366;49.184;8.054;2023-06-26T03:06:14;5.60;;;4.90;;
26780;SDS011;14366;49.184;8.054;2023-06-26T03:11:51;6.40;;;5.23;;
26780;SDS011;14366;49.184;8.054;2023-06-26T03:22:29;6.87;;;5.33;;
26780;SDS011;14366;49.184;8.054;2023-06-26T03:32:53;6.62;;;5.60;;
26780;SDS011;14366;49.184;8.054;2023-06-26T03:38:24;6.25;;;4.97;;
26780;SDS011;14366;49.184;8.054;2023-06-26T03:43:53;9.70;;;5.60;;
26780;SDS011;14366;49.184;8.054;2023-06-26T03:49:13;6.45;;;4.90;;
26780;SDS011;14366;49.184;8.054;2023-06-26T03:59:52;5.85;;;4.90;;
26780;SDS011;14366;49.184;8.054;2023-06-26T04:10:16;5.55;;;5.00;;
26780;SDS011;14366;49.184;8.054;2023-06-26T04:15:48;5.60;;;5.00;;
26780;SDS011;14366;49.184;8.054;2023-06-26T04:21:20;7.35;;;5.20;;
26780;SDS011;14366;49.184;8.054;2023-06-26T04:26:54;5.80;;;5.20;;
26780;SDS011;14366;49.184;8.054;2023-06-26T04:37:29;6.95;;;4.70;;
26780;SDS011;14366;49.184;8.054;2023-06-26T04:47:53;8.20;;;6.05;;
26780;SDS011;14366;49.184;8.054;2023-06-26T04:58:31;6.67;;;5.60;;
26780;SDS011;14366;49.184;8.054;2023-06-26T05:04:05;6.10;;;5.40;;
26780;SDS011;14366;49.184;8.054;2023-06-26T05:09:37;7.90;;;6.35;;
26780;SDS011;14366;49.184;8.054;2023-06-26T05:14:54;8.48;;;6.12;;
26780;SDS011;14366;49.184;8.054;2023-06-26T05:20:13;7.80;;;6.50;;
26780;SDS011;14366;49.184;8.054;2023-06-26T05:25:46;7.00;;;6.15;;
26780;SDS011;14366;49.184;8.054;2023-06-26T05:31:19;6.90;;;6.05;;
26780;SDS011;14366;49.184;8.054;2023-06-26T05:36:55;6.23;;;5.63;;
26780;SDS011;14366;49.184;8.054;2023-06-26T05:42:27;7.30;;;5.75;;
26780;SDS011;14366;49.184;8.054;2023-06-26T05:47:59;7.25;;;5.70;;
26780;SDS011;14366;49.184;8.054;2023-06-26T05:53:32;7.80;;;5.30;;
26780;SDS011;14366;49.184;8.054;2023-06-26T05:59:01;7.40;;;5.97;;
26780;SDS011;14366;49.184;8.054;2023-06-26T06:04:33;6.27;;;5.60;;
26780;SDS011;14366;49.184;8.054;2023-06-26T06:09:51;5.87;;;5.28;;
26780;SDS011;14366;49.184;8.054;2023-06-26T06:15:27;6.20;;;5.60;;
26780;SDS011;14366;49.184;8.054;2023-06-26T06:21:03;7.03;;;5.30;;
26780;SDS011;14366;49.184;8.054;2023-06-26T06:26:21;7.33;;;5.17;;
26780;SDS011;14366;49.184;8.054;2023-06-26T06:31:53;6.70;;;5.30;;
26780;SDS011;14366;49.184;8.054;2023-06-26T06:37:10;5.70;;;5.10;;
26780;SDS011;14366;49.184;8.054;2023-06-26T06:42:28;5.55;;;5.00;;
26780;SDS011;14366;49.184;8.054;2023-06-26T06:48:03;5.12;;;4.53;;
26780;SDS011;14366;49.184;8.054;2023-06-26T06:53:24;6.20;;;4.85;;
26780;SDS011;14366;49.184;8.054;2023-06-26T06:58:42;6.12;;;4.90;;
26780;SDS011;14366;49.184;8.054;2023-06-26T07:04:15;8.70;;;5.32;;
26780;SDS011;14366;49.184;8.054;2023-06-26T07:09:48;5.70;;;5.00;;
26780;SDS011;14366;49.184;8.054;2023-06-26T07:15:07;7.63;;;5.00;;
26780;SDS011;14366;49.184;8.054;2023-06-26T07:20:42;5.60;;;5.00;;
26780;SDS011;14366;49.184;8.054;2023-06-26T07:26:15;5.10;;;4.60;;
26780;SDS011;14366;49.184;8.054;2023-06-26T07:31:50;5.70;;;5.20;;
26780;SDS011;14366;49.184;8.054;2023-06-26T07:37:23;4.90;;;4.40;;
26780;SDS011;14366;49.184;8.054;2023-06-26T07:42:58;5.10;;;4.55;;
26780;SDS011;14366;49.184;8.054;2023-06-26T07:53:21;5.70;;;4.90;;
26780;SDS011;14366;49.184;8.054;2023-06-26T08:03:58;5.87;;;4.93;;
26780;SDS011;14366;49.184;8.054;2023-06-26T08:14:22;5.55;;;4.95;;
26780;SDS011;14366;49.184;8.054;2023-06-26T08:24:58;5.40;;;4.90;;
26780;SDS011;14366;49.184;8.054;2023-06-26T08:30:08;6.15;;;4.90;;
26780;SDS011;14366;49.184;8.054;2023-06-26T08:35:41;6.55;;;4.90;;
26780;SDS011;14366;49.184;8.054;2023-06-26T08:40:59;7.57;;;4.60;;
26780;SDS011;14366;49.184;8.054;2023-06-26T08:46:32;7.10;;;4.80;;
26780;SDS011;14366;49.184;8.054;2023-06-26T08:52:10;8.65;;;5.05;;
26780;SDS011;14366;49.184;8.054;2023-06-26T08:57:40;6.05;;;4.78;;
26780;SDS011;14366;49.184;8.054;2023-06-26T09:03:17;6.30;;;5.50;;
26780;SDS011;14366;49.184;8.054;2023-06-26T09:08:55;10.90;;;5.55;;
26780;SDS011;14366;49.184;8.054;2023-06-26T09:14:31;5.20;;;4.70;;
26780;SDS011;14366;49.184;8.054;2023-06-26T09:20:08;6.60;;;5.50;;
26780;SDS011;14366;49.184;8.054;2023-06-26T09:25:43;8.30;;;5.30;;
26780;SDS011;14366;49.184;8.054;2023-06-26T09:31:16;6.30;;;4.85;;
26780;SDS011;14366;49.184;8.054;2023-06-26T09:36:54;7.46;;;5.38;;
26780;SDS011;14366;49.184;8.054;2023-06-26T09:42:30;7.97;;;5.35;;
26780;SDS011;14366;49.184;8.054;2023-06-26T09:48:05;8.65;;;5.05;;
26780;SDS011;14366;49.184;8.054;2023-06-26T09:53:41;10.40;;;5.10;;
26780;SDS011;14366;49.184;8.054;2023-06-26T09:59:12;5.95;;;5.00;;
26780;SDS011;14366;49.184;8.054;2023-06-26T10:04:48;5.50;;;5.00;;
26780;SDS011;14366;49.184;8.054;2023-06-26T10:15:15;5.80;;;5.20;;
26780;SDS011;14366;49.184;8.054;2023-06-26T10:25:55;6.40;;;4.82;;
26780;SDS011;14366;49.184;8.054;2023-06-26T10:36:36;8.85;;;4.90;;
26780;SDS011;14366;49.184;8.054;2023-06-26T10:42:10;9.37;;;5.23;;
26780;SDS011;14366;49.184;8.054;2023-06-26T10:47:46;5.20;;;4.70;;
26780;SDS011;14366;49.184;8.054;2023-06-26T10:53:24;5.90;;;4.50;;
26780;SDS011;14366;49.184;8.054;2023-06-26T10:58:56;5.45;;;4.55;;
26780;SDS011;14366;49.184;8.054;2023-06-26T11:04:40;6.10;;;3.85;;
26780;SDS011;14366;49.184;8.054;2023-06-26T11:10:14;6.65;;;3.87;;
26780;SDS011;14366;49.184;8.054;2023-06-26T11:15:50;5.00;;;3.15;;
26780;SDS011;14366;49.184;8.054;2023-06-26T11:21:27;5.68;;;3.47;;
26780;SDS011;14366;49.184;8.054;2023-06-26T11:27:00;7.53;;;3.62;;
26780;SDS011;14366;49.184;8.054;2023-06-26T11:32:35;5.57;;;3.33;;
26780;SDS011;14366;49.184;8.054;2023-06-26T11:38:06;8.25;;;3.65;;
26780;SDS011;14366;49.184;8.054;2023-06-26T11:43:40;5.28;;;3.37;;
26780;SDS011;14366;49.184;8.054;2023-06-26T11:49:14;5.30;;;3.40;;
26780;SDS011;14366;49.184;8.054;2023-06-26T11:54:45;4.87;;;3.50;;
26780;SDS011;14366;49.184;8.054;2023-06-26T12:00:18;3.50;;;3.20;;
26780;SDS011;14366;49.184;8.054;2023-06-26T12:10:57;4.55;;;3.25;;
26780;SDS011;14366;49.184;8.054;2023-06-26T12:16:29;3.75;;;3.17;;
26780;SDS011;14366;49.184;8.054;2023-06-26T12:22:05;5.10;;;3.13;;
26780;SDS011;14366;49.184;8.054;2023-06-26T12:32:47;6.40;;;4.90;;
26780;SDS011;14366;49.184;8.054;2023-06-26T12:43:25;8.00;;;6.10;;
26780;SDS011;14366;49.184;8.054;2023-06-26T12:49:00;10.60;;;7.10;;
26780;SDS011;14366;49.184;8.054;2023-06-26T12:54:33;6.95;;;5.95;;
26780;SDS011;14366;49.184;8.054;2023-06-26T13:00:06;5.55;;;4.82;;
26780;SDS011;14366;49.184;8.054;2023-06-26T13:05:38;7.88;;;5.18;;
26780;SDS011;14366;49.184;8.054;2023-06-26T13:16:17;7.05;;;4.35;;
26780;SDS011;14366;49.184;8.054;2023-06-26T13:21:40;5.00;;;4.10;;
26780;SDS011;14366;49.184;8.054;2023-06-26T13:27:16;5.60;;;3.20;;
26780;SDS011;14366;49.184;8.054;2023-06-26T13:37:39;3.80;;;2.60;;
26780;SDS011;14366;49.184;8.054;2023-06-26T13:43:12;3.75;;;2.60;;
26780;SDS011;14366;49.184;8.054;2023-06-26T13:48:30;7.58;;;2.66;;
26780;SDS011;14366;49.184;8.054;2023-06-26T13:54:03;6.45;;;2.25;;
26780;SDS011;14366;49.184;8.054;2023-06-26T13:59:36;4.30;;;2.00;;
26780;SDS011;14366;49.184;8.054;2023-06-26T14:05:08;4.78;;;1.90;;
26780;SDS011;14366;49.184;8.054;2023-06-26T14:10:41;3.80;;;1.98;;
26780;SDS011;14366;49.184;8.054;2023-06-26T14:16:16;2.75;;;1.73;;
26780;SDS011;14366;49.184;8.054;2023-06-26T14:21:52;3.72;;;1.70;;
26780;SDS011;14366;49.184;8.054;2023-06-26T14:27:25;2.85;;;1.85;;
26780;SDS011;14366;49.184;8.054;2023-06-26T14:32:55;6.35;;;1.95;;
26780;SDS011;14366;49.184;8.054;2023-06-26T14:38:12;3.72;;;1.90;;
26780;SDS011;14366;49.184;8.054;2023-06-26T14:48:50;3.05;;;1.70;;
26780;SDS011;14366;49.184;8.054;2023-06-26T14:54:22;3.70;;;1.90;;
26780;SDS011;14366;49.184;8.054;2023-06-26T14:59:39;4.07;;;2.05;;
26780;SDS011;14366;49.184;8.054;2023-06-26T15:04:57;2.30;;;1.67;;
26780;SDS011;14366;49.184;8.054;2023-06-26T15:10:30;7.85;;;2.00;;
26780;SDS011;14366;49.184;8.054;2023-06-26T15:20:54;4.30;;;1.92;;
26780;SDS011;14366;49.184;8.054;2023-06-26T15:31:32;2.40;;;1.70;;
26780;SDS011;14366;49.184;8.054;2023-06-26T15:36:54;3.65;;;1.90;;
26780;SDS011;14366;49.184;8.054;2023-06-26T15:42:26;2.80;;;1.77;;
26780;SDS011;14366;49.184;8.054;2023-06-26T15:47:59;3.65;;;1.80;;
26780;SDS011;14366;49.184;8.054;2023-06-26T15:53:19;5.18;;;1.90;;
26780;SDS011;14366;49.184;8.054;2023-06-26T15:58:56;3.35;;;1.77;;
26780;SDS011;14366;49.184;8.054;2023-06-26T16:04:12;4.65;;;1.90;;
26780;SDS011;14366;49.184;8.054;2023-06-26T16:09:31;3.03;;;1.50;;
26780;SDS011;14366;49.184;8.054;2023-06-26T16:15:04;6.78;;;1.80;;
26780;SDS011;14366;49.184;8.054;2023-06-26T16:20:21;4.73;;;1.80;;
26780;SDS011;14366;49.184;8.054;2023-06-26T16:25:55;3.77;;;1.70;;
26780;SDS011;14366;49.184;8.054;2023-06-26T16:31:26;5.50;;;2.20;;
26780;SDS011;14366;49.184;8.054;2023-06-26T16:36:44;3.65;;;1.70;;
26780;SDS011;14366;49.184;8.054;2023-06-26T16:42:03;5.12;;;1.67;;
26780;SDS011;14366;49.184;8.054;2023-06-26T16:47:36;4.60;;;1.90;;
26780;SDS011;14366;49.184;8.054;2023-06-26T16:58:00;3.30;;;1.95;;
26780;SDS011;14366;49.184;8.054;2023-06-26T17:03:28;3.42;;;1.80;;
26780;SDS011;14366;49.184;8.054;2023-06-26T17:08:49;2.65;;;1.60;;
26780;SDS011;14366;49.184;8.054;2023-06-26T17:19:12;3.53;;;1.53;;
26780;SDS011;14366;49.184;8.054;2023-06-26T17:29:48;3.57;;;2.23;;
26780;SDS011;14366;49.184;8.054;2023-06-26T17:35:10;3.97;;;1.73;;
26780;SDS011;14366;49.184;8.054;2023-06-26T17:40:42;3.53;;;1.80;;
26780;SDS011;14366;49.184;8.054;2023-06-26T17:46:17;4.40;;;1.65;;
26780;SDS011;14366;49.184;8.054;2023-06-26T17:51:52;5.72;;;2.03;;
26780;SDS011;14366;49.184;8.054;2023-06-26T17:57:26;5.78;;;2.00;;
26780;SDS011;14366;49.184;8.054;2023-06-26T18:02:45;3.85;;;1.90;;
26780;SDS011;14366;49.184;8.054;2023-06-26T18:08:04;3.60;;;2.22;;
26780;SDS011;14366;49.184;8.054;2023-06-26T18:13:34;4.70;;;2.28;;
26780;SDS011;14366;49.184;8.054;2023-06-26T18:24:00;4.37;;;1.73;;
26780;SDS011;14366;49.184;8.054;2023-06-26T18:34:35;5.07;;;1.90;;
26780;SDS011;14366;49.184;8.054;2023-06-26T18:40:12;2.67;;;1.85;;
26780;SDS011;14366;49.184;8.054;2023-06-26T18:45:48;5.55;;;2.30;;
26780;SDS011;14366;49.184;8.054;2023-06-26T18:51:20;5.87;;;1.90;;
26780;SDS011;14366;49.184;8.054;2023-06-26T18:56:38;4.72;;;1.83;;
26780;SDS011;14366;49.184;8.054;2023-06-26T19:02:11;3.83;;;2.08;;
26780;SDS011;14366;49.184;8.054;2023-06-26T19:07:28;4.57;;;1.70;;
26780;SDS011;14366;49.184;8.054;2023-06-26T19:12:47;4.45;;;2.10;;
26780;SDS011;14366;49.184;8.054;2023-06-26T19:18:19;3.97;;;2.00;;
26780;SDS011;14366;49.184;8.054;2023-06-26T19:23:37;5.50;;;2.10;;
26780;SDS011;14366;49.184;8.054;2023-06-26T19:28:55;2.97;;;1.85;;
26780;SDS011;14366;49.184;8.054;2023-06-26T19:34:30;5.05;;;2.00;;
26780;SDS011;14366;49.184;8.054;2023-06-26T19:45:09;5.25;;;2.08;;
26780;SDS011;14366;49.184;8.054;2023-06-26T19:55:44;4.00;;;2.10;;
26780;SDS011;14366;49.184;8.054;2023-06-26T20:01:20;3.40;;;2.03;;
26780;SDS011;14366;49.184;8.054;2023-06-26T20:06:55;3.43;;;1.80;;
26780;SDS011;14366;49.184;8.054;2023-06-26T20:12:13;5.00;;;2.10;;
26780;SDS011;14366;49.184;8.054;2023-06-26T20:17:30;3.58;;;1.90;;
26780;SDS011;14366;49.184;8.054;2023-06-26T20:23:05;5.65;;;2.30;;
26780;SDS011;14366;49.184;8.054;2023-06-26T20:28:37;2.95;;;1.98;;
26780;SDS011;14366;49.184;8.054;2023-06-26T20:33:58;4.90;;;1.90;;
26780;SDS011;14366;49.184;8.054;2023-06-26T20:44:37;3.83;;;1.92;;
26780;SDS011;14366;49.184;8.054;2023-06-26T20:50:14;8.42;;;2.14;;
26780;SDS011;14366;49.184;8.054;2023-06-26T20:55:46;3.40;;;1.80;;
26780;SDS011;14366;49.184;8.054;2023-06-26T21:01:04;4.30;;;2.00;;
26780;SDS011;14366;49.184;8.054;2023-06-26T21:06:40;7.35;;;2.40;;
26780;SDS011;14366;49.184;8.054;2023-06-26T21:17:16;5.67;;;2.20;;
26780;SDS011;14366;49.184;8.054;2023-06-26T21:27:53;4.35;;;1.90;;
26780;SDS011;14366;49.184;8.054;2023-06-26T21:33:25;4.70;;;2.20;;
26780;SDS011;14366;49.184;8.054;2023-06-26T21:38:43;3.35;;;1.95;;
26780;SDS011;14366;49.184;8.054;2023-06-26T21:44:03;3.50;;;1.95;;
26780;SDS011;14366;49.184;8.054;2023-06-26T21:49:37;4.05;;;2.00;;
26780;SDS011;14366;49.184;8.054;2023-06-26T21:55:06;3.55;;;1.80;;
26780;SDS011;14366;49.184;8.054;2023-06-26T22:00:40;6.40;;;2.10;;
26780;SDS011;14366;49.184;8.054;2023-06-26T22:06:11;5.15;;;2.30;;
26780;SDS011;14366;49.184;8.054;2023-06-26T22:11:28;4.15;;;2.10;;
26780;SDS011;14366;49.184;8.054;2023-06-26T22:16:48;3.20;;;2.00;;
26780;SDS011;14366;49.184;8.054;2023-06-26T22:22:19;4.80;;;2.10;;
26780;SDS011;14366;49.184;8.054;2023-06-26T22:27:52;4.62;;;2.03;;
26780;SDS011;14366;49.184;8.054;2023-06-26T22:33:25;4.90;;;1.90;;
26780;SDS011;14366;49.184;8.054;2023-06-26T22:38:56;4.40;;;2.30;;
26780;SDS011;14366;49.184;8.054;2023-06-26T22:44:14;8.30;;;2.30;;
26780;SDS011;14366;49.184;8.054;2023-06-26T22:49:48;3.55;;;1.90;;
26780;SDS011;14366;49.184;8.054;2023-06-26T22:55:19;8.50;;;2.20;;
26780;SDS011;14366;49.184;8.054;2023-06-26T23:00:51;2.75;;;1.98;;
26780;SDS011;14366;49.184;8.054;2023-06-26T23:06:25;4.50;;;2.08;;
26780;SDS011;14366;49.184;8.054;2023-06-26T23:11:57;4.50;;;2.10;;
26780;SDS011;14366;49.184;8.054;2023-06-26T23:17:33;4.75;;;2.10;;
26780;SDS011;14366;49.184;8.054;2023-06-26T23:23:07;4.10;;;1.80;;
26780;SDS011;14366;49.184;8.054;2023-06-26T23:33:43;4.85;;;2.37;;
26780;SDS011;14366;49.184;8.054;2023-06-26T23:44:18;3.75;;;2.10;;
26780;SDS011;14366;49.184;8.054;2023-06-26T23:50:09;4.97;;;1.83;;
26780;SDS011;14366;49.184;8.054;2023-06-26T23:55:40;3.25;;;2.12;;
